Time;durP1;ratioP1;P1;durP2;ratioP2;P2;SDS_P1;SDS_P2;PMS_P1;PMS_P2;Temp;Humidity;BMP_temperature;BMP_pressure;BME280_temperature;BME280_humidity;BME280_pressure;Samples;Min_cycle;Max_cycle;Signal;HPM_P1;HPM_P2
2022/03/02 00:02:14;;;;;;;14.90;8.13;;;;;;;-2.75;100.00;96102.53;5074761;28;20220;-63
2022/03/02 00:04:40;;;;;;;12.80;7.80;;;;;;;-2.75;100.00;96107.88;5074208;28;20192;-64
2022/03/02 00:07:05;;;;;;;12.77;8.17;;;;;;;-2.74;100.00;96109.50;5074794;28;20189;-57
2022/03/02 00:09:31;;;;;;;13.60;8.43;;;;;;;-2.74;100.00;96098.81;5074590;28;20225;-61
2022/03/02 00:11:57;;;;;;;11.10;7.97;;;;;;;-2.73;100.00;96105.72;5074319;28;20209;-45
2022/03/02 00:14:23;;;;;;;12.97;8.60;;;;;;;-2.74;100.00;96102.25;5075348;28;20188;-46
2022/03/02 00:16:48;;;;;;;13.87;8.00;;;;;;;-2.74;100.00;96098.81;5074226;28;20185;-47
2022/03/02 00:19:13;;;;;;;12.27;8.23;;;;;;;-2.74;100.00;96093.47;5074177;28;20193;-45
2022/03/02 00:21:39;;;;;;;14.53;7.93;;;;;;;-2.73;100.00;96095.03;5074206;28;20229;-51
2022/03/02 00:24:04;;;;;;;14.50;8.63;;;;;;;-2.72;100.00;96089.38;5074656;28;20215;-50
2022/03/02 00:26:31;;;;;;;13.67;8.57;;;;;;;-2.73;100.00;96084.34;5074758;28;20184;-53
2022/03/02 00:28:56;;;;;;;14.60;8.53;;;;;;;-2.77;100.00;96083.38;5072908;28;20243;-54
2022/03/02 00:31:22;;;;;;;14.93;8.93;;;;;;;-2.80;100.00;96084.75;5074094;28;20189;-54
2022/03/02 00:33:47;;;;;;;14.50;8.23;;;;;;;-2.82;100.00;96075.44;5074264;28;20212;-52
2022/03/02 00:36:13;;;;;;;14.77;8.63;;;;;;;-2.82;100.00;96080.78;5073826;28;20189;-53
2022/03/02 00:38:38;;;;;;;14.60;8.50;;;;;;;-2.84;100.00;96077.66;5073822;28;20249;-53
2022/03/02 00:41:04;;;;;;;14.67;8.10;;;;;;;-2.86;100.00;96074.47;5073929;28;20277;-52
2022/03/02 00:43:30;;;;;;;14.20;8.70;;;;;;;-2.91;100.00;96072.72;5074180;28;20188;-54
2022/03/02 00:45:55;;;;;;;11.97;8.23;;;;;;;-2.96;100.00;96059.47;5073750;28;20190;-45
2022/03/02 00:48:20;;;;;;;16.20;8.57;;;;;;;-2.98;100.00;96067.00;5073999;28;20193;-52
2022/03/02 00:50:46;;;;;;;11.70;8.23;;;;;;;-2.99;100.00;96069.97;5073491;28;20193;-52
2022/03/02 00:53:12;;;;;;;11.20;7.77;;;;;;;-3.02;100.00;96062.56;5074068;28;20212;-51
2022/03/02 00:55:38;;;;;;;12.50;7.80;;;;;;;-3.09;100.00;96059.50;5074179;28;20189;-46
2022/03/02 00:58:04;;;;;;;15.47;8.70;;;;;;;-3.11;100.00;96057.13;5073645;28;20196;-48
2022/03/02 01:00:30;;;;;;;13.30;8.50;;;;;;;-3.11;100.00;96061.69;5073620;28;20192;-50
2022/03/02 01:02:56;;;;;;;11.60;7.80;;;;;;;-3.11;100.00;96056.34;5073582;28;20208;-54
2022/03/02 01:05:21;;;;;;;13.63;8.47;;;;;;;-3.11;100.00;96056.34;5074108;28;20189;-46
2022/03/02 01:07:47;;;;;;;15.00;9.10;;;;;;;-3.10;100.00;96047.25;5073819;28;20189;-49
2022/03/02 01:10:13;;;;;;;17.07;8.50;;;;;;;-3.10;100.00;96041.91;5073221;28;20599;-44
2022/03/02 01:12:39;;;;;;;12.97;8.17;;;;;;;-3.12;100.00;96036.06;5073466;28;20295;-44
2022/03/02 01:15:06;;;;;;;12.97;8.23;;;;;;;-3.09;100.00;96030.94;5073305;28;20832;-46
2022/03/02 01:17:32;;;;;;;13.63;8.67;;;;;;;-3.12;100.00;96028.06;5073420;28;20185;-45
2022/03/02 01:19:57;;;;;;;13.73;8.53;;;;;;;-3.17;100.00;96022.84;5073493;28;20275;-44
2022/03/02 01:22:23;;;;;;;12.10;8.13;;;;;;;-3.21;100.00;96025.31;5073152;28;20265;-45
2022/03/02 01:24:48;;;;;;;14.93;8.57;;;;;;;-3.28;100.00;96024.16;5072553;28;20209;-52
2022/03/02 01:27:14;;;;;;;11.97;8.10;;;;;;;-3.32;100.00;96017.84;5073163;28;20196;-53
2022/03/02 01:29:39;;;;;;;16.63;8.37;;;;;;;-3.35;100.00;96027.25;5073117;28;20335;-52
2022/03/02 01:32:07;;;;;;;15.00;8.87;;;;;;;-3.35;100.00;96039.78;5072709;28;20208;-53
2022/03/02 01:34:32;;;;;;;10.83;8.23;;;;;;;-3.36;100.00;96046.22;5072722;28;20330;-52
2022/03/02 01:36:58;;;;;;;13.67;8.40;;;;;;;-3.42;100.00;96046.31;5073047;28;20221;-53
2022/03/02 01:39:23;;;;;;;11.57;8.30;;;;;;;-3.43;100.00;96038.59;5073058;28;20181;-46
2022/03/02 01:41:49;;;;;;;12.27;7.73;;;;;;;-3.45;100.00;96033.56;5072970;28;20185;-44
2022/03/02 01:44:14;;;;;;;15.60;8.10;;;;;;;-3.42;100.00;96028.72;5072787;28;20185;-61
2022/03/02 01:46:40;;;;;;;12.67;8.83;;;;;;;-3.47;100.00;96027.75;5072902;28;20177;-61
2022/03/02 01:49:06;;;;;;;14.27;8.47;;;;;;;-3.52;100.00;96030.53;5072736;28;20196;-61
2022/03/02 01:51:31;;;;;;;15.70;8.77;;;;;;;-3.59;100.00;96024.81;5072716;28;20189;-61
2022/03/02 01:53:56;;;;;;;14.33;8.27;;;;;;;-3.62;100.00;96025.41;5072814;28;20215;-62
2022/03/02 01:56:22;;;;;;;15.07;8.63;;;;;;;-3.65;100.00;96020.66;5072412;28;20189;-61
2022/03/02 01:58:48;;;;;;;12.50;9.07;;;;;;;-3.68;100.00;96015.91;5073174;28;20185;-62
2022/03/02 02:01:13;;;;;;;17.20;8.57;;;;;;;-3.68;100.00;96013.25;5073587;28;20189;-54
2022/03/02 02:03:39;;;;;;;15.37;8.43;;;;;;;-3.68;100.00;96004.47;5072767;28;20197;-54
2022/03/02 02:06:05;;;;;;;15.03;8.30;;;;;;;-3.69;100.00;96011.66;5073581;28;20189;-51
2022/03/02 02:08:31;;;;;;;15.47;9.27;;;;;;;-3.67;100.00;96017.47;5072978;28;20216;-54
2022/03/02 02:10:58;;;;;;;14.13;8.40;;;;;;;-3.68;100.00;96007.91;5072858;28;20192;-53
2022/03/02 02:13:26;;;;;;;13.33;8.43;;;;;;;-3.71;100.00;95995.16;5072393;28;20238;-54
2022/03/02 02:15:53;;;;;;;15.83;8.70;;;;;;;-3.78;100.00;95989.44;5072537;28;20181;-53
2022/03/02 02:18:18;;;;;;;13.40;8.10;;;;;;;-3.80;100.00;95991.63;5072586;28;20208;-61
2022/03/02 02:20:44;;;;;;;13.70;7.90;;;;;;;-3.84;100.00;95979.97;5072245;28;20189;-56
2022/03/02 02:23:09;;;;;;;13.77;8.33;;;;;;;-3.86;100.00;95982.13;5072317;28;20185;-53
2022/03/02 02:25:35;;;;;;;10.93;7.97;;;;;;;-3.85;100.00;95982.94;5073174;28;20189;-53
2022/03/02 02:28:00;;;;;;;15.17;8.03;;;;;;;-3.85;100.00;95983.75;5072305;28;20227;-55
2022/03/02 02:30:28;;;;;;;14.30;8.20;;;;;;;-3.83;100.00;95976.22;5072006;28;20185;-55
2022/03/02 02:32:53;;;;;;;13.33;8.43;;;;;;;-3.82;100.00;95983.13;5072122;28;20232;-55
2022/03/02 02:35:19;;;;;;;12.50;8.00;;;;;;;-3.82;100.00;95983.13;5072227;28;20185;-45
2022/03/02 02:37:44;;;;;;;13.20;8.50;;;;;;;-3.85;100.00;95982.94;5072743;28;20181;-52
2022/03/02 02:40:14;;;;;;;15.93;8.70;;;;;;;-3.82;100.00;95987.69;5072712;28;20185;-54
2022/03/02 02:42:44;;;;;;;14.17;8.93;;;;;;;-3.82;100.00;95993.78;5072452;28;20187;-54
2022/03/02 02:45:10;;;;;;;16.80;9.03;;;;;;;-3.87;100.00;95996.56;5072318;28;20265;-53
2022/03/02 02:47:36;;;;;;;14.40;8.90;;;;;;;-3.88;100.00;95992.31;5072080;28;20193;-52
2022/03/02 02:50:13;;;;;;;14.03;8.53;;;;;;;-3.88;100.00;95987.00;5071923;28;20189;-51
2022/03/02 02:52:39;;;;;;;13.90;8.73;;;;;;;-3.88;100.00;95979.00;5073849;28;20204;-61
2022/03/02 02:55:09;;;;;;;14.97;8.27;;;;;;;-3.88;100.00;95972.84;5075569;28;20239;-61
2022/03/02 02:57:34;;;;;;;12.60;7.90;;;;;;;-3.87;100.00;95980.56;5075440;28;20181;-50
2022/03/02 02:59:59;;;;;;;13.23;8.00;;;;;;;-3.89;100.00;95969.38;5075444;28;20230;-52
2022/03/02 03:02:25;;;;;;;16.37;9.30;;;;;;;-3.93;100.00;95971.06;5075434;28;20201;-53
2022/03/02 03:04:50;;;;;;;13.80;8.10;;;;;;;-3.97;100.00;95959.44;5075322;28;20256;-52
2022/03/02 03:07:15;;;;;;;12.27;7.63;;;;;;;-3.96;100.00;95955.66;5075606;28;20192;-52
2022/03/02 03:09:41;;;;;;;14.50;8.80;;;;;;;-3.96;100.00;95954.91;5075772;28;20184;-51
2022/03/02 03:12:06;;;;;;;15.33;8.83;;;;;;;-3.96;100.00;95954.91;5075101;28;20247;-55
2022/03/02 03:14:31;;;;;;;14.33;9.03;;;;;;;-3.96;100.00;95950.34;5075551;28;20239;-61
2022/03/02 03:16:57;;;;;;;16.73;9.60;;;;;;;-3.98;100.00;95957.84;5075195;28;20256;-61
2022/03/02 03:19:22;;;;;;;17.57;9.47;;;;;;;-4.09;100.00;95959.16;5075465;28;20228;-63
2022/03/02 03:21:48;;;;;;;14.37;8.33;;;;;;;-4.12;100.00;95961.59;5075064;28;20185;-61
2022/03/02 03:24:13;;;;;;;17.73;9.07;;;;;;;-4.19;100.00;95962.00;5074884;28;20189;-61
2022/03/02 03:26:39;;;;;;;15.00;8.87;;;;;;;-4.22;100.00;95962.59;5075085;28;20188;-61
2022/03/02 03:29:04;;;;;;;13.90;8.93;;;;;;;-4.25;100.00;95967.72;5074778;28;20189;-63
2022/03/02 03:31:29;;;;;;;12.30;7.97;;;;;;;-4.27;100.00;95967.22;5075404;28;20239;-63
2022/03/02 03:33:54;;;;;;;14.90;8.53;;;;;;;-4.26;100.00;95961.59;5074896;28;20216;-53
2022/03/02 03:36:20;;;;;;;13.67;7.87;;;;;;;-4.23;100.00;95971.69;5074929;28;20208;-51
2022/03/02 03:38:45;;;;;;;14.77;8.53;;;;;;;-4.24;100.00;95975.44;5074869;28;20223;-53
2022/03/02 03:41:11;;;;;;;14.07;8.43;;;;;;;-4.32;100.00;95970.78;5074530;28;20176;-52
2022/03/02 03:43:36;;;;;;;16.67;8.90;;;;;;;-4.31;100.00;95964.38;5074827;28;20192;-53
2022/03/02 03:46:02;;;;;;;14.67;8.57;;;;;;;-4.31;100.00;95958.25;5074614;28;20193;-54
2022/03/02 03:48:27;;;;;;;11.97;8.07;;;;;;;-4.36;100.00;95961.81;5074849;28;20199;-48
2022/03/02 03:50:53;;;;;;;13.07;7.93;;;;;;;-4.34;100.00;95964.97;5074987;28;20196;-61
2022/03/02 03:53:18;;;;;;;15.47;8.70;;;;;;;-4.35;100.00;95957.25;5074572;28;20254;-61
2022/03/02 03:55:43;;;;;;;14.83;8.60;;;;;;;-4.38;100.00;95963.97;5074498;28;20216;-62
2022/03/02 03:58:09;;;;;;;13.93;8.10;;;;;;;-4.39;100.00;95965.06;5074592;28;20173;-61
2022/03/02 04:00:34;;;;;;;13.00;7.87;;;;;;;-4.38;100.00;95968.50;5074278;28;20181;-61
2022/03/02 04:03:00;;;;;;;12.90;8.33;;;;;;;-4.45;100.00;95962.75;5074263;28;20209;-61
2022/03/02 04:05:25;;;;;;;14.47;8.43;;;;;;;-4.46;100.00;95956.66;5074236;28;20185;-61
2022/03/02 04:07:50;;;;;;;13.60;8.47;;;;;;;-4.51;100.00;95943.41;5074515;28;20177;-52
2022/03/02 04:10:17;;;;;;;16.20;8.53;;;;;;;-4.54;100.00;95941.38;5074159;28;20181;-54
2022/03/02 04:12:44;;;;;;;12.90;7.40;;;;;;;-4.56;100.00;95942.72;5074102;28;20282;-54
2022/03/02 04:15:10;;;;;;;13.03;7.57;;;;;;;-4.61;100.00;95934.84;5074005;28;20192;-54
2022/03/02 04:17:36;;;;;;;11.13;7.63;;;;;;;-4.60;100.00;95942.53;5074061;28;20185;-54
2022/03/02 04:20:03;;;;;;;12.57;7.93;;;;;;;-4.57;100.00;95944.63;5074151;28;20227;-54
2022/03/02 04:22:28;;;;;;;12.77;7.70;;;;;;;-4.55;100.00;95945.09;5074054;28;20185;-55
2022/03/02 04:24:53;;;;;;;12.07;7.50;;;;;;;-4.51;100.00;95947.97;5074231;28;20189;-61
2022/03/02 04:27:19;;;;;;;15.07;7.10;;;;;;;-4.46;100.00;95935.34;5074471;28;20224;-55
2022/03/02 04:29:44;;;;;;;11.23;7.40;;;;;;;-4.45;100.00;95931.59;5074591;28;20216;-50
2022/03/02 04:32:10;;;;;;;10.70;7.27;;;;;;;-4.44;100.00;95929.72;5073632;28;20204;-51
2022/03/02 04:34:35;;;;;;;12.20;7.63;;;;;;;-4.43;100.00;95928.63;5074325;28;20280;-51
2022/03/02 04:37:01;;;;;;;11.77;7.30;;;;;;;-4.42;100.00;95925.69;5073812;28;20185;-51
2022/03/02 04:39:26;;;;;;;11.73;6.97;;;;;;;-4.40;100.00;95922.72;5074414;28;20189;-52
2022/03/02 04:41:52;;;;;;;15.23;7.90;;;;;;;-4.37;100.00;95922.91;5075083;28;20231;-47
2022/03/02 04:44:17;;;;;;;15.90;8.57;;;;;;;-4.31;100.00;95916.41;5090636;28;20555;-64
2022/03/02 04:46:48;;;;;;;13.47;8.03;;;;;;;-4.30;100.00;95904.66;5073611;28;20220;-65
2022/03/02 04:49:14;;;;;;;15.37;7.77;;;;;;;-4.28;100.00;95905.16;5074883;28;20205;-65
2022/03/02 04:51:40;;;;;;;14.37;7.87;;;;;;;-4.26;100.00;95902.22;5073978;28;20197;-65
2022/03/02 04:54:07;;;;;;;15.43;8.00;;;;;;;-4.26;100.00;95896.88;5073465;28;20181;-65
2022/03/02 04:56:33;;;;;;;15.83;9.20;;;;;;;-4.28;100.00;95905.16;5073961;28;20181;-65
2022/03/02 04:59:01;;;;;;;13.80;7.83;;;;;;;-4.23;100.00;95906.91;5073346;28;20181;-66
2022/03/02 05:01:27;;;;;;;29.33;14.13;;;;;;;-4.16;100.00;95918.78;5073710;28;20268;-55
2022/03/02 05:03:53;;;;;;;12.97;7.13;;;;;;;-4.13;100.00;95902.19;5073416;28;20199;-67
2022/03/02 05:06:18;;;;;;;10.13;6.80;;;;;;;-4.09;100.00;95897.84;5073574;28;20245;-53
2022/03/02 05:08:43;;;;;;;11.80;7.40;;;;;;;-4.10;100.00;95896.25;5073303;28;20234;-50
2022/03/02 05:11:09;;;;;;;12.87;7.27;;;;;;;-4.09;100.00;95897.84;5073114;28;20185;-53
2022/03/02 05:13:36;;;;;;;11.00;7.07;;;;;;;-4.12;100.00;95885.09;5073088;28;20300;-51
2022/03/02 05:16:01;;;;;;;11.17;6.70;;;;;;;-4.13;100.00;95891.53;5072965;28;20290;-52
2022/03/02 05:18:26;;;;;;;11.23;6.77;;;;;;;-4.10;100.00;95884.81;5073014;28;20189;-48
2022/03/02 05:20:52;;;;;;;12.33;7.33;;;;;;;-4.07;100.00;95895.66;5073264;28;20185;-51
2022/03/02 05:23:17;;;;;;;14.47;6.63;;;;;;;-4.03;100.00;95891.31;5073086;28;20188;-49
2022/03/02 05:25:43;;;;;;;9.97;6.77;;;;;;;-4.01;100.00;95889.13;5073364;28;20196;-51
2022/03/02 05:28:08;;;;;;;9.87;6.60;;;;;;;-3.96;100.00;95896.25;5072783;28;20192;-48
2022/03/02 05:30:34;;;;;;;10.20;6.30;;;;;;;-3.90;100.00;95889.69;5073368;28;20284;-50
2022/03/02 05:32:59;;;;;;;11.77;6.37;;;;;;;-3.89;100.00;95897.41;5072751;28;20233;-50
2022/03/02 05:35:25;;;;;;;11.63;6.67;;;;;;;-3.82;100.00;95897.78;5073055;28;20299;-54
2022/03/02 05:37:50;;;;;;;11.00;6.67;;;;;;;-3.69;100.00;95906.84;5072942;28;20196;-61
2022/03/02 05:40:17;;;;;;;11.00;6.00;;;;;;;-3.64;100.00;95902.19;5072908;28;20196;-46
2022/03/02 05:42:43;;;;;;;9.33;6.63;;;;;;;-3.57;100.00;95901.78;5072589;28;20196;-54
2022/03/02 05:45:09;;;;;;;11.07;6.73;;;;;;;-3.54;100.00;95907.28;5072523;28;20185;-53
2022/03/02 05:47:35;;;;;;;11.57;6.40;;;;;;;-3.47;100.00;95914.09;5072723;28;20185;-55
2022/03/02 05:50:02;;;;;;;11.37;6.80;;;;;;;-3.40;100.00;95909.91;5072462;28;20268;-55
2022/03/02 05:52:27;;;;;;;12.63;8.37;;;;;;;-3.33;100.00;95910.28;5072856;28;20216;-55
2022/03/02 05:54:52;;;;;;;12.77;8.10;;;;;;;-3.25;100.00;95916.78;5072980;28;20185;-54
2022/03/02 05:57:18;;;;;;;11.50;7.30;;;;;;;-3.17;100.00;95905.38;5072969;28;20264;-51
2022/03/02 05:59:43;;;;;;;11.53;7.40;;;;;;;-3.11;100.00;95896.94;5073450;28;20184;-60
2022/03/02 06:02:09;;;;;;;10.80;5.97;;;;;;;-3.07;100.00;95895.22;5072230;28;20212;-62
2022/03/02 06:04:34;;;;;;;9.63;6.03;;;;;;;-3.03;100.00;95892.75;5072371;28;20195;-62
2022/03/02 06:06:59;;;;;;;10.13;6.43;;;;;;;-2.92;100.00;95891.41;5072405;28;20185;-61
2022/03/02 06:09:25;;;;;;;13.80;7.07;;;;;;;-2.78;100.00;95889.41;5072563;28;20181;-61
2022/03/02 06:11:51;;;;;;;12.87;7.33;;;;;;;-2.74;100.00;95879.72;5072214;28;20189;-61
2022/03/02 06:14:16;;;;;;;14.13;7.57;;;;;;;-2.31;100.00;95889.50;5072393;28;20174;-60
2022/03/02 06:16:42;;;;;;;9.17;6.70;;;;;;;-1.62;100.00;95885.06;5072636;28;20182;-67
2022/03/02 06:19:08;;;;;;;10.93;6.67;;;;;;;-1.56;100.00;95883.81;5072638;28;20330;-57
2022/03/02 06:21:34;;;;;;;10.73;6.33;;;;;;;-1.47;100.00;95879.25;5072437;28;20205;-52
2022/03/02 06:23:59;;;;;;;9.60;6.50;;;;;;;-1.44;100.00;95881.28;5071974;28;20264;-57
2022/03/02 06:26:26;;;;;;;10.53;6.63;;;;;;;-1.47;100.00;95881.91;5073350;28;20204;-53
2022/03/02 06:28:52;;;;;;;9.20;6.53;;;;;;;-1.34;100.00;95886.34;5076234;28;20208;-53
2022/03/02 06:31:18;;;;;;;11.13;6.23;;;;;;;-0.90;100.00;95880.63;5075837;28;20189;-52
2022/03/02 06:33:45;;;;;;;14.67;6.97;;;;;;;-0.43;100.00;95879.56;5075439;28;20236;-51
2022/03/02 06:36:10;;;;;;;12.30;7.13;;;;;;;-0.28;100.00;95882.47;5075802;28;20190;-49
2022/03/02 06:38:36;;;;;;;12.97;7.20;;;;;;;-0.38;100.00;95884.72;5075638;28;20276;-51
2022/03/02 06:41:14;;;;;;;8.23;6.60;;;;;;;-0.53;100.00;95890.63;5075918;28;20255;-47
2022/03/02 06:43:49;;;;;;;11.47;6.70;;;;;;;-0.51;100.00;95893.78;5075625;28;20186;-51
2022/03/02 06:46:32;;;;;;;11.13;6.77;;;;;;;-0.39;100.00;95891.22;5075553;28;20190;-50
2022/03/02 06:49:14;;;;;;;9.57;7.27;;;;;;;-0.34;100.00;95893.69;5075893;28;20281;-52
2022/03/02 06:51:44;;;;;;;11.10;6.93;;;;;;;-0.36;100.00;95895.94;5075903;28;20243;-46
2022/03/02 06:54:12;;;;;;;11.00;6.93;;;;;;;-0.24;100.00;95899.50;5075285;28;20207;-54
2022/03/02 06:56:48;;;;;;;11.53;6.70;;;;;;;-0.13;100.00;95894.56;5075256;28;20220;-48
2022/03/02 06:59:23;;;;;;;11.93;6.90;;;;;;;0.38;100.00;95896.16;5075684;28;20186;-50
2022/03/02 07:01:51;;;;;;;12.27;6.87;;;;;;;1.04;100.00;95893.28;5075024;28;20277;-49
2022/03/02 07:04:17;;;;;;;12.83;6.90;;;;;;;1.33;100.00;95890.47;5075131;28;20188;-48
2022/03/02 07:06:45;;;;;;;10.37;7.00;;;;;;;1.64;100.00;95882.69;5075311;28;20267;-49
2022/03/02 07:09:11;;;;;;;9.50;6.53;;;;;;;2.08;100.00;95887.22;5075082;28;20188;-52
2022/03/02 07:11:38;;;;;;;12.60;6.70;;;;;;;2.55;94.91;95885.59;5075632;28;20193;-69
2022/03/02 07:14:06;;;;;;;10.53;6.30;;;;;;;2.74;89.63;95888.47;5075125;28;20205;-53
2022/03/02 07:16:32;;;;;;;9.53;6.60;;;;;;;2.81;87.74;95894.06;5075841;28;20186;-54
2022/03/02 07:18:57;;;;;;;10.10;6.83;;;;;;;3.26;84.56;95900.00;5075061;28;20197;-55
2022/03/02 07:21:27;;;;;;;12.70;7.73;;;;;;;3.91;81.06;95895.94;5074519;28;20181;-55
2022/03/02 07:24:04;;;;;;;14.83;7.10;;;;;;;3.77;78.36;95897.47;5075430;28;20188;-55
2022/03/02 07:26:29;;;;;;;12.00;7.27;;;;;;;3.53;78.72;95889.53;5074798;28;20201;-55
2022/03/02 07:28:56;;;;;;;12.07;8.27;;;;;;;3.18;80.07;95887.41;5074965;28;20189;-54
2022/03/02 07:31:22;;;;;;;14.23;7.80;;;;;;;2.94;81.79;95887.53;5074422;28;20190;-61
2022/03/02 07:33:51;;;;;;;10.53;7.03;;;;;;;3.30;81.31;95887.38;5074427;28;20336;-62
2022/03/02 07:36:18;;;;;;;13.47;7.93;;;;;;;3.61;78.05;95889.38;5075067;28;20285;-61
2022/03/02 07:38:44;;;;;;;14.13;7.93;;;;;;;4.31;76.11;95879.50;5074232;28;20198;-61
2022/03/02 07:41:10;;;;;;;15.00;7.93;;;;;;;5.12;73.09;95873.94;5074662;28;20187;-62
2022/03/02 07:43:38;;;;;;;11.97;7.80;;;;;;;5.89;67.94;95870.81;5074536;28;20325;-62
2022/03/02 07:46:10;;;;;;;11.77;7.13;;;;;;;7.03;62.60;95861.28;5075005;28;20284;-62
2022/03/02 07:48:36;;;;;;;11.57;7.27;;;;;;;7.21;59.88;95859.56;5074539;28;20188;-54
2022/03/02 07:51:04;;;;;;;22.43;12.30;;;;;;;7.23;58.85;95861.91;5074908;28;20193;-62
2022/03/02 07:53:35;;;;;;;13.33;9.37;;;;;;;7.03;58.92;95864.00;5074443;28;20288;-62
2022/03/02 07:56:01;;;;;;;13.60;7.43;;;;;;;6.59;60.40;95863.78;5074550;28;20252;-62
2022/03/02 07:58:27;;;;;;;10.93;7.33;;;;;;;6.51;61.95;95864.06;5074456;28;20188;-62
2022/03/02 08:00:54;;;;;;;10.77;6.93;;;;;;;6.60;60.88;95859.16;5074057;28;20577;-62
2022/03/02 08:03:24;;;;;;;12.87;7.50;;;;;;;6.87;61.25;95857.97;5074477;28;20204;-62
2022/03/02 08:05:50;;;;;;;10.43;7.33;;;;;;;6.52;59.37;95863.69;5074192;28;20231;-68
2022/03/02 08:08:16;;;;;;;12.33;7.20;;;;;;;6.41;60.25;95851.91;5075012;28;20190;-50
2022/03/02 08:10:42;;;;;;;11.20;6.83;;;;;;;6.59;59.21;95858.38;5074488;28;20181;-47
2022/03/02 08:13:10;;;;;;;13.43;7.57;;;;;;;6.44;59.22;95855.81;5074032;28;20204;-52
2022/03/02 08:15:36;;;;;;;14.70;7.67;;;;;;;6.41;59.17;95854.59;5074761;28;20180;-49
2022/03/02 08:18:01;;;;;;;19.77;11.17;;;;;;;6.21;60.92;95847.72;5074339;28;20181;-53
2022/03/02 08:20:26;;;;;;;13.83;7.63;;;;;;;6.19;61.00;95850.00;5073995;28;20184;-52
2022/03/02 08:22:55;;;;;;;12.73;6.80;;;;;;;6.35;58.88;95849.88;5074186;28;20196;-51
2022/03/02 08:25:25;;;;;;;18.33;7.63;;;;;;;6.93;58.89;95850.28;5074268;28;20177;-55
2022/03/02 08:27:53;;;;;;;13.40;6.90;;;;;;;7.28;56.49;95851.50;5074055;28;20178;-53
2022/03/02 08:30:18;;;;;;;13.17;6.97;;;;;;;8.36;53.26;95851.03;5073877;28;20188;-56
2022/03/02 08:32:46;;;;;;;13.13;6.97;;;;;;;9.27;50.04;95841.47;5074331;28;20208;-55
2022/03/02 08:35:13;;;;;;;13.23;6.80;;;;;;;9.88;46.19;95833.03;5074450;28;20271;-52
2022/03/02 08:37:40;;;;;;;18.57;7.90;;;;;;;10.32;45.23;95834.66;5073876;28;20181;-50
2022/03/02 08:40:07;;;;;;;11.00;7.57;;;;;;;10.46;44.81;95829.22;5074146;28;20195;-55
2022/03/02 08:42:33;;;;;;;14.40;7.40;;;;;;;11.03;42.96;95825.22;5073631;28;20184;-55
2022/03/02 08:44:59;;;;;;;12.70;7.03;;;;;;;10.56;42.73;95826.47;5073471;28;20196;-54
2022/03/02 08:47:25;;;;;;;17.10;6.87;;;;;;;10.77;41.96;95825.66;5073665;28;20196;-53
2022/03/02 08:49:51;;;;;;;11.93;7.03;;;;;;;10.50;42.58;95819.06;5072729;28;20196;-52
2022/03/02 08:52:27;;;;;;;11.63;6.67;;;;;;;9.59;44.20;95831.44;5073514;28;20281;-50
2022/03/02 08:54:54;;;;;;;8.13;5.90;;;;;;;10.03;41.87;95817.50;5073638;28;20211;-52
2022/03/02 08:57:20;;;;;;;8.90;5.90;;;;;;;10.02;42.01;95822.16;5073177;28;20526;-54
2022/03/02 08:59:50;;;;;;;10.57;6.73;;;;;;;9.84;41.68;95823.31;5073110;28;20191;-63
2022/03/02 09:02:19;;;;;;;13.87;10.77;;;;;;;10.54;43.32;95819.84;5073140;28;20224;-53
2022/03/02 09:04:47;;;;;;;10.27;7.03;;;;;;;9.56;42.27;95804.16;5073709;28;20209;-47
2022/03/02 09:07:12;;;;;;;9.27;6.90;;;;;;;9.93;42.51;95816.31;5073405;28;20185;-50
2022/03/02 09:09:39;;;;;;;22.33;13.47;;;;;;;10.01;43.01;95809.69;5073118;28;20653;-51
2022/03/02 09:12:07;;;;;;;9.43;6.77;;;;;;;9.70;42.24;95798.75;5073378;28;20193;-50
2022/03/02 09:14:32;;;;;;;9.67;7.17;;;;;;;9.33;42.18;95801.75;5073212;28;20177;-51
2022/03/02 09:16:59;;;;;;;7.00;6.00;;;;;;;9.26;42.84;95798.25;5073270;28;20192;-48
2022/03/02 09:19:24;;;;;;;8.13;6.63;;;;;;;9.03;42.50;95803.22;5073502;28;20272;-44
2022/03/02 09:21:50;;;;;;;10.37;6.70;;;;;;;8.82;41.80;95801.16;5073165;28;20213;-64
2022/03/02 09:24:17;;;;;;;10.37;6.73;;;;;;;9.74;41.60;95789.41;5073031;28;20185;-64
2022/03/02 09:26:43;;;;;;;13.67;7.97;;;;;;;9.40;43.39;95790.88;5072909;28;20181;-63
2022/03/02 09:29:09;;;;;;;10.47;7.60;;;;;;;9.42;43.88;95791.28;5073012;28;20193;-65
2022/03/02 09:31:36;;;;;;;16.13;8.83;;;;;;;9.57;44.44;95790.16;5072915;28;20226;-63
2022/03/02 09:34:09;;;;;;;14.27;8.90;;;;;;;9.34;45.51;95795.16;5073274;28;20251;-64
2022/03/02 09:36:38;;;;;;;14.27;8.63;;;;;;;8.53;46.60;95791.28;5073011;28;20181;-50
2022/03/02 09:39:09;;;;;;;14.70;9.17;;;;;;;8.60;47.82;95796.75;5073866;28;20186;-62
2022/03/02 09:41:51;;;;;;;20.03;9.47;;;;;;;8.71;47.65;95792.16;5072961;28;20200;-62
2022/03/02 09:44:20;;;;;;;12.83;9.47;;;;;;;8.73;47.25;95791.78;5072603;28;20193;-60
2022/03/02 09:46:52;;;;;;;12.40;8.93;;;;;;;7.88;48.28;95801.28;5072749;28;20204;-61
2022/03/02 09:49:21;;;;;;;12.80;9.67;;;;;;;7.54;50.83;95801.72;5073286;28;20671;-61
2022/03/02 09:51:54;;;;;;;18.03;9.53;;;;;;;8.22;51.31;95801.94;5073083;28;20207;-61
2022/03/02 09:54:21;;;;;;;12.43;8.40;;;;;;;7.92;49.04;95799.38;5072869;28;20204;-61
2022/03/02 09:56:50;;;;;;;10.73;8.30;;;;;;;7.64;50.27;95799.09;5072594;28;20196;-42
2022/03/02 09:59:17;;;;;;;18.30;13.63;;;;;;;7.53;51.08;95802.88;5072717;28;20245;-55
2022/03/02 10:01:44;;;;;;;18.13;12.07;;;;;;;7.31;51.86;95801.88;5072760;28;20185;-56
2022/03/02 10:04:13;;;;;;;17.40;13.03;;;;;;;7.26;51.01;95802.22;5072445;28;20194;-56
2022/03/02 10:06:42;;;;;;;15.10;8.43;;;;;;;7.28;50.97;95810.75;5072515;28;20194;-55
2022/03/02 10:09:09;;;;;;;11.73;8.57;;;;;;;7.58;51.79;95795.16;5072435;28;20197;-54
2022/03/02 10:11:36;;;;;;;11.93;8.13;;;;;;;7.10;53.08;95807.06;5072547;28;20199;-57
2022/03/02 10:14:02;;;;;;;11.63;8.60;;;;;;;7.63;51.65;95803.00;5072427;28;20207;-56
2022/03/02 10:16:28;;;;;;;14.30;8.00;;;;;;;7.83;51.81;95801.59;5072241;28;20237;-61
2022/03/02 10:18:59;;;;;;;10.77;8.03;;;;;;;8.05;48.76;95800.63;5072288;28;20207;-62
2022/03/02 10:21:40;;;;;;;11.23;7.83;;;;;;;8.16;50.50;95803.44;5072858;28;20283;-62
2022/03/02 10:24:12;;;;;;;12.73;7.80;;;;;;;8.71;48.38;95786.72;5072787;28;20535;-61
2022/03/02 10:26:49;;;;;;;10.80;7.23;;;;;;;8.88;47.29;95791.47;5072542;28;20575;-61
2022/03/02 10:29:20;;;;;;;13.63;9.37;;;;;;;9.37;47.64;95791.66;5072273;28;20191;-62
2022/03/02 10:32:08;;;;;;;8.70;7.23;;;;;;;8.97;46.54;95794.66;5072254;28;20208;-46
2022/03/02 10:34:59;;;;;;;12.47;8.10;;;;;;;8.52;47.66;95787.00;5072409;28;20188;-57
2022/03/02 10:37:58;;;;;;;11.57;7.90;;;;;;;8.84;46.92;95790.69;5071977;28;20219;-65
2022/03/02 10:40:24;;;;;;;12.20;7.53;;;;;;;8.74;47.68;95780.50;5071802;28;20259;-65
2022/03/02 10:43:00;;;;;;;17.13;8.70;;;;;;;9.48;46.30;95784.28;5072036;28;20199;-67
2022/03/02 10:45:25;;;;;;;12.63;8.77;;;;;;;9.84;45.69;95777.72;5071857;28;20185;-66
2022/03/02 10:48:27;;;;;;;11.93;7.77;;;;;;;9.76;43.42;95781.59;5071945;28;20203;-65
2022/03/02 10:50:56;;;;;;;8.03;6.97;;;;;;;8.66;45.54;95795.25;5014912;28;20189;-61
2022/03/02 10:53:26;;;;;;;8.83;6.87;;;;;;;8.98;45.28;95779.06;5061070;28;20221;-57
2022/03/02 10:55:57;;;;;;;10.37;7.23;;;;;;;8.85;44.43;95783.31;5071678;28;20185;-57
2022/03/02 10:58:30;;;;;;;9.77;7.40;;;;;;;8.68;45.19;95778.53;5072228;28;20284;-57
2022/03/02 11:00:58;;;;;;;8.77;6.83;;;;;;;8.23;46.80;95777.09;5072469;28;20185;-58
2022/03/02 11:03:27;;;;;;;11.57;7.07;;;;;;;8.21;47.74;95768.53;5071844;28;20201;-57
2022/03/02 11:05:55;;;;;;;9.27;7.20;;;;;;;7.86;47.76;95770.19;5071510;28;20199;-57
2022/03/02 11:08:22;;;;;;;10.97;6.63;;;;;;;7.43;50.07;95770.97;5072168;28;20536;-51
2022/03/02 11:10:50;;;;;;;9.63;6.93;;;;;;;7.26;51.56;95761.47;5071706;28;20208;-56
2022/03/02 11:13:16;;;;;;;8.27;6.60;;;;;;;7.08;51.78;95755.09;5072789;28;20214;-59
2022/03/02 11:15:50;;;;;;;7.93;6.63;;;;;;;6.93;52.10;95754.13;5074984;28;20256;-57
2022/03/02 11:18:40;;;;;;;12.13;6.87;;;;;;;7.04;53.05;95748.84;5075729;28;20245;-56
2022/03/02 11:21:08;;;;;;;11.27;7.23;;;;;;;7.60;51.53;95746.66;5075300;28;20190;-55
2022/03/02 11:23:42;;;;;;;12.60;7.90;;;;;;;8.16;49.61;95741.66;5075056;28;20185;-55
2022/03/02 11:26:11;;;;;;;9.07;6.50;;;;;;;8.26;48.99;95746.41;5075047;28;20197;-57